sensor_id;sensor_type;location;lat;lon;timestamp;P1;durP1;ratioP1;P2;durP2;ratioP2
37297;SDS011;30517;51.932;4.278;2023-01-01T00:01:42;38.15;;;30.00;;
37297;SDS011;30517;51.932;4.278;2023-01-01T00:04:24;39.20;;;29.85;;
37297;SDS011;30517;51.932;4.278;2023-01-01T00:07:05;36.40;;;28.92;;
37297;SDS011;30517;51.932;4.278;2023-01-01T00:09:46;38.95;;;28.88;;
37297;SDS011;30517;51.932;4.278;2023-01-01T00:12:45;33.65;;;28.10;;
37297;SDS011;30517;51.932;4.278;2023-01-01T00:15:26;36.22;;;27.90;;
37297;SDS011;30517;51.932;4.278;2023-01-01T00:18:08;33.60;;;28.95;;
37297;SDS011;30517;51.932;4.278;2023-01-01T00:20:48;35.88;;;26.67;;
37297;SDS011;30517;51.932;4.278;2023-01-01T00:23:29;33.67;;;27.30;;
37297;SDS011;30517;51.932;4.278;2023-01-01T00:26:14;31.90;;;25.77;;
37297;SDS011;30517;51.932;4.278;2023-01-01T00:28:56;32.42;;;26.40;;
37297;SDS011;30517;51.932;4.278;2023-01-01T00:31:37;30.33;;;24.63;;
37297;SDS011;30517;51.932;4.278;2023-01-01T00:34:18;28.52;;;24.73;;
37297;SDS011;30517;51.932;4.278;2023-01-01T00:36:59;31.50;;;24.20;;
37297;SDS011;30517;51.932;4.278;2023-01-01T00:39:39;29.55;;;22.77;;
37297;SDS011;30517;51.932;4.278;2023-01-01T00:42:20;30.45;;;23.45;;
37297;SDS011;30517;51.932;4.278;2023-01-01T00:45:01;28.17;;;22.50;;
37297;SDS011;30517;51.932;4.278;2023-01-01T00:47:42;31.60;;;23.08;;
37297;SDS011;30517;51.932;4.278;2023-01-01T00:50:23;29.10;;;22.85;;
37297;SDS011;30517;51.932;4.278;2023-01-01T00:53:03;28.63;;;21.85;;
37297;SDS011;30517;51.932;4.278;2023-01-01T00:55:45;29.88;;;21.10;;
37297;SDS011;30517;51.932;4.278;2023-01-01T00:58:27;25.80;;;20.15;;
37297;SDS011;30517;51.932;4.278;2023-01-01T01:01:08;25.75;;;19.50;;
37297;SDS011;30517;51.932;4.278;2023-01-01T01:03:49;26.15;;;18.67;;
37297;SDS011;30517;51.932;4.278;2023-01-01T01:06:30;24.05;;;17.13;;
37297;SDS011;30517;51.932;4.278;2023-01-01T01:09:10;24.50;;;17.85;;
37297;SDS011;30517;51.932;4.278;2023-01-01T01:11:51;26.63;;;17.33;;
37297;SDS011;30517;51.932;4.278;2023-01-01T01:14:32;26.80;;;17.63;;
37297;SDS011;30517;51.932;4.278;2023-01-01T01:17:13;23.30;;;15.82;;
37297;SDS011;30517;51.932;4.278;2023-01-01T01:19:54;22.33;;;14.95;;
37297;SDS011;30517;51.932;4.278;2023-01-01T01:22:35;20.23;;;15.30;;
37297;SDS011;30517;51.932;4.278;2023-01-01T01:25:15;20.67;;;13.77;;
37297;SDS011;30517;51.932;4.278;2023-01-01T01:27:56;16.55;;;13.30;;
37297;SDS011;30517;51.932;4.278;2023-01-01T01:30:37;18.05;;;13.57;;
37297;SDS011;30517;51.932;4.278;2023-01-01T01:33:18;18.77;;;13.68;;
37297;SDS011;30517;51.932;4.278;2023-01-01T01:35:59;21.38;;;13.60;;
37297;SDS011;30517;51.932;4.278;2023-01-01T01:38:40;16.48;;;12.23;;
37297;SDS011;30517;51.932;4.278;2023-01-01T01:41:22;17.75;;;12.18;;
37297;SDS011;30517;51.932;4.278;2023-01-01T01:50:24;17.95;;;11.23;;
37297;SDS011;30517;51.932;4.278;2023-01-01T01:53:10;14.43;;;10.60;;
37297;SDS011;30517;51.932;4.278;2023-01-01T01:55:56;17.02;;;9.68;;
37297;SDS011;30517;51.932;4.278;2023-01-01T01:58:40;15.10;;;9.57;;
37297;SDS011;30517;51.932;4.278;2023-01-01T02:01:21;15.52;;;9.50;;
37297;SDS011;30517;51.932;4.278;2023-01-01T02:04:02;16.33;;;9.98;;
37297;SDS011;30517;51.932;4.278;2023-01-01T02:06:44;12.85;;;8.40;;
37297;SDS011;30517;51.932;4.278;2023-01-01T02:09:26;12.20;;;8.55;;
37297;SDS011;30517;51.932;4.278;2023-01-01T02:12:07;12.93;;;8.27;;
37297;SDS011;30517;51.932;4.278;2023-01-01T02:14:48;11.70;;;7.32;;
37297;SDS011;30517;51.932;4.278;2023-01-01T02:17:33;11.23;;;7.88;;
37297;SDS011;30517;51.932;4.278;2023-01-01T02:20:32;11.57;;;7.47;;
37297;SDS011;30517;51.932;4.278;2023-01-01T02:30:12;12.75;;;6.80;;
37297;SDS011;30517;51.932;4.278;2023-01-01T02:32:56;12.43;;;6.78;;
37297;SDS011;30517;51.932;4.278;2023-01-01T02:35:43;12.20;;;6.25;;
37297;SDS011;30517;51.932;4.278;2023-01-01T02:41:21;12.90;;;5.75;;
37297;SDS011;30517;51.932;4.278;2023-01-01T02:44:07;9.25;;;6.10;;
37297;SDS011;30517;51.932;4.278;2023-01-01T02:46:47;10.57;;;6.22;;
37297;SDS011;30517;51.932;4.278;2023-01-01T02:49:28;11.60;;;6.00;;
37297;SDS011;30517;51.932;4.278;2023-01-01T02:55:18;12.45;;;6.22;;
37297;SDS011;30517;51.932;4.278;2023-01-01T02:58:03;9.10;;;5.30;;
37297;SDS011;30517;51.932;4.278;2023-01-01T03:01:31;10.25;;;5.05;;
37297;SDS011;30517;51.932;4.278;2023-01-01T03:04:24;8.07;;;5.57;;
37297;SDS011;30517;51.932;4.278;2023-01-01T03:07:49;8.88;;;5.10;;
37297;SDS011;30517;51.932;4.278;2023-01-01T03:10:57;11.82;;;4.95;;
37297;SDS011;30517;51.932;4.278;2023-01-01T03:16:36;11.52;;;5.03;;
37297;SDS011;30517;51.932;4.278;2023-01-01T03:19:27;7.85;;;4.80;;
37297;SDS011;30517;51.932;4.278;2023-01-01T03:22:15;6.70;;;4.28;;
37297;SDS011;30517;51.932;4.278;2023-01-01T03:25:03;11.38;;;4.50;;
37297;SDS011;30517;51.932;4.278;2023-01-01T03:28:04;9.30;;;4.78;;
37297;SDS011;30517;51.932;4.278;2023-01-01T03:30:50;7.10;;;4.38;;
37297;SDS011;30517;51.932;4.278;2023-01-01T03:36:39;8.98;;;3.63;;
37297;SDS011;30517;51.932;4.278;2023-01-01T03:40:08;9.07;;;4.03;;
37297;SDS011;30517;51.932;4.278;2023-01-01T03:42:35;7.65;;;3.75;;
37297;SDS011;30517;51.932;4.278;2023-01-01T03:45:20;9.50;;;3.65;;
37297;SDS011;30517;51.932;4.278;2023-01-01T03:48:05;12.43;;;3.47;;
37297;SDS011;30517;51.932;4.278;2023-01-01T03:50:57;5.63;;;3.00;;
37297;SDS011;30517;51.932;4.278;2023-01-01T03:53:46;7.28;;;3.15;;
37297;SDS011;30517;51.932;4.278;2023-01-01T03:59:27;8.60;;;3.20;;
37297;SDS011;30517;51.932;4.278;2023-01-01T04:02:18;6.85;;;3.28;;
37297;SDS011;30517;51.932;4.278;2023-01-01T04:05:05;6.15;;;2.75;;
37297;SDS011;30517;51.932;4.278;2023-01-01T04:07:51;8.20;;;2.47;;
37297;SDS011;30517;51.932;4.278;2023-01-01T04:10:34;6.82;;;2.80;;
37297;SDS011;30517;51.932;4.278;2023-01-01T04:13:18;7.43;;;2.63;;
37297;SDS011;30517;51.932;4.278;2023-01-01T04:15:59;7.13;;;2.55;;
37297;SDS011;30517;51.932;4.278;2023-01-01T04:18:39;5.95;;;2.60;;
37297;SDS011;30517;51.932;4.278;2023-01-01T04:21:20;4.93;;;2.35;;
37297;SDS011;30517;51.932;4.278;2023-01-01T04:24:01;6.60;;;2.50;;
37297;SDS011;30517;51.932;4.278;2023-01-01T04:26:42;5.22;;;2.38;;
37297;SDS011;30517;51.932;4.278;2023-01-01T04:29:23;6.25;;;2.33;;
37297;SDS011;30517;51.932;4.278;2023-01-01T04:32:04;4.80;;;2.20;;
37297;SDS011;30517;51.932;4.278;2023-01-01T04:34:44;6.20;;;2.65;;
37297;SDS011;30517;51.932;4.278;2023-01-01T04:37:25;4.57;;;2.55;;
37297;SDS011;30517;51.932;4.278;2023-01-01T04:40:07;10.23;;;2.85;;
37297;SDS011;30517;51.932;4.278;2023-01-01T04:42:48;6.35;;;2.30;;
37297;SDS011;30517;51.932;4.278;2023-01-01T04:45:33;6.60;;;2.30;;
37297;SDS011;30517;51.932;4.278;2023-01-01T04:48:14;5.88;;;2.33;;
37297;SDS011;30517;51.932;4.278;2023-01-01T04:53:37;5.55;;;2.63;;
37297;SDS011;30517;51.932;4.278;2023-01-01T04:56:19;6.07;;;2.70;;
37297;SDS011;30517;51.932;4.278;2023-01-01T04:59:01;7.53;;;2.47;;
37297;SDS011;30517;51.932;4.278;2023-01-01T05:01:42;5.55;;;2.15;;
37297;SDS011;30517;51.932;4.278;2023-01-01T05:04:23;5.13;;;2.10;;
37297;SDS011;30517;51.932;4.278;2023-01-01T05:07:03;5.65;;;2.33;;
37297;SDS011;30517;51.932;4.278;2023-01-01T05:09:44;3.45;;;1.63;;
37297;SDS011;30517;51.932;4.278;2023-01-01T05:12:25;6.80;;;2.40;;
37297;SDS011;30517;51.932;4.278;2023-01-01T05:15:06;6.85;;;2.33;;
37297;SDS011;30517;51.932;4.278;2023-01-01T05:17:47;5.53;;;2.28;;
37297;SDS011;30517;51.932;4.278;2023-01-01T05:20:28;6.68;;;2.20;;
37297;SDS011;30517;51.932;4.278;2023-01-01T05:23:09;7.18;;;2.22;;
37297;SDS011;30517;51.932;4.278;2023-01-01T05:25:49;4.82;;;1.67;;
37297;SDS011;30517;51.932;4.278;2023-01-01T05:28:30;8.00;;;2.30;;
37297;SDS011;30517;51.932;4.278;2023-01-01T05:31:12;5.45;;;2.33;;
37297;SDS011;30517;51.932;4.278;2023-01-01T05:33:55;6.75;;;1.90;;
37297;SDS011;30517;51.932;4.278;2023-01-01T05:36:36;5.32;;;2.00;;
37297;SDS011;30517;51.932;4.278;2023-01-01T05:39:18;6.65;;;1.90;;
37297;SDS011;30517;51.932;4.278;2023-01-01T05:41:58;6.28;;;1.95;;
37297;SDS011;30517;51.932;4.278;2023-01-01T05:44:39;5.47;;;1.77;;
37297;SDS011;30517;51.932;4.278;2023-01-01T05:47:20;6.45;;;1.70;;
37297;SDS011;30517;51.932;4.278;2023-01-01T05:50:01;6.45;;;1.92;;
37297;SDS011;30517;51.932;4.278;2023-01-01T05:52:42;5.78;;;1.88;;
37297;SDS011;30517;51.932;4.278;2023-01-01T05:55:22;6.18;;;2.22;;
37297;SDS011;30517;51.932;4.278;2023-01-01T05:58:03;6.65;;;2.17;;
37297;SDS011;30517;51.932;4.278;2023-01-01T06:00:44;4.00;;;1.73;;
37297;SDS011;30517;51.932;4.278;2023-01-01T06:06:10;5.68;;;1.80;;
37297;SDS011;30517;51.932;4.278;2023-01-01T06:08:59;6.32;;;2.15;;
37297;SDS011;30517;51.932;4.278;2023-01-01T06:11:41;2.83;;;1.50;;
37297;SDS011;30517;51.932;4.278;2023-01-01T06:14:22;6.97;;;1.73;;
37297;SDS011;30517;51.932;4.278;2023-01-01T06:17:03;6.90;;;2.00;;
37297;SDS011;30517;51.932;4.278;2023-01-01T06:19:44;7.78;;;1.85;;
37297;SDS011;30517;51.932;4.278;2023-01-01T06:22:24;5.93;;;1.50;;
37297;SDS011;30517;51.932;4.278;2023-01-01T06:25:05;5.80;;;1.55;;
37297;SDS011;30517;51.932;4.278;2023-01-01T06:27:47;4.97;;;1.83;;
37297;SDS011;30517;51.932;4.278;2023-01-01T06:30:27;7.57;;;1.98;;
37297;SDS011;30517;51.932;4.278;2023-01-01T06:33:10;4.47;;;1.60;;
37297;SDS011;30517;51.932;4.278;2023-01-01T06:35:51;7.90;;;1.80;;
37297;SDS011;30517;51.932;4.278;2023-01-01T06:38:32;6.15;;;1.77;;
37297;SDS011;30517;51.932;4.278;2023-01-01T06:41:19;6.95;;;1.88;;
37297;SDS011;30517;51.932;4.278;2023-01-01T06:44:01;9.27;;;1.67;;
37297;SDS011;30517;51.932;4.278;2023-01-01T06:46:42;4.93;;;1.83;;
37297;SDS011;30517;51.932;4.278;2023-01-01T06:49:23;5.88;;;1.80;;
37297;SDS011;30517;51.932;4.278;2023-01-01T06:52:04;12.00;;;1.73;;
37297;SDS011;30517;51.932;4.278;2023-01-01T06:54:47;4.63;;;1.95;;
37297;SDS011;30517;51.932;4.278;2023-01-01T06:57:28;5.78;;;1.60;;
37297;SDS011;30517;51.932;4.278;2023-01-01T07:00:09;6.82;;;1.48;;
37297;SDS011;30517;51.932;4.278;2023-01-01T07:02:50;5.50;;;1.77;;
37297;SDS011;30517;51.932;4.278;2023-01-01T07:05:31;7.57;;;2.08;;
37297;SDS011;30517;51.932;4.278;2023-01-01T07:08:12;6.35;;;1.70;;
37297;SDS011;30517;51.932;4.278;2023-01-01T07:10:53;5.20;;;1.67;;
37297;SDS011;30517;51.932;4.278;2023-01-01T07:13:36;6.97;;;1.42;;
37297;SDS011;30517;51.932;4.278;2023-01-01T07:16:17;6.57;;;1.95;;
37297;SDS011;30517;51.932;4.278;2023-01-01T07:18:58;4.43;;;1.70;;
37297;SDS011;30517;51.932;4.278;2023-01-01T07:21:52;5.97;;;1.70;;
37297;SDS011;30517;51.932;4.278;2023-01-01T07:24:34;6.22;;;2.00;;
37297;SDS011;30517;51.932;4.278;2023-01-01T07:27:15;5.07;;;1.30;;
37297;SDS011;30517;51.932;4.278;2023-01-01T07:29:56;5.18;;;1.58;;
37297;SDS011;30517;51.932;4.278;2023-01-01T07:32:36;7.68;;;2.33;;
37297;SDS011;30517;51.932;4.278;2023-01-01T07:35:17;4.95;;;1.60;;
37297;SDS011;30517;51.932;4.278;2023-01-01T07:37:58;3.35;;;1.30;;
37297;SDS011;30517;51.932;4.278;2023-01-01T07:40:39;6.75;;;1.85;;
37297;SDS011;30517;51.932;4.278;2023-01-01T07:43:20;5.70;;;1.40;;
37297;SDS011;30517;51.932;4.278;2023-01-01T07:46:01;6.65;;;1.77;;
37297;SDS011;30517;51.932;4.278;2023-01-01T07:48:43;10.05;;;1.83;;
37297;SDS011;30517;51.932;4.278;2023-01-01T07:51:24;4.72;;;1.50;;
37297;SDS011;30517;51.932;4.278;2023-01-01T07:54:05;3.90;;;1.50;;
37297;SDS011;30517;51.932;4.278;2023-01-01T07:56:45;7.20;;;1.38;;
37297;SDS011;30517;51.932;4.278;2023-01-01T07:59:26;7.28;;;1.80;;
37297;SDS011;30517;51.932;4.278;2023-01-01T08:02:08;2.88;;;0.95;;
37297;SDS011;30517;51.932;4.278;2023-01-01T08:04:51;6.68;;;1.30;;
37297;SDS011;30517;51.932;4.278;2023-01-01T08:07:32;3.80;;;1.45;;
37297;SDS011;30517;51.932;4.278;2023-01-01T08:10:13;3.60;;;1.30;;
37297;SDS011;30517;51.932;4.278;2023-01-01T08:13:02;5.38;;;1.45;;
37297;SDS011;30517;51.932;4.278;2023-01-01T08:15:44;5.60;;;1.20;;
37297;SDS011;30517;51.932;4.278;2023-01-01T08:18:25;4.82;;;1.45;;
37297;SDS011;30517;51.932;4.278;2023-01-01T08:21:06;4.05;;;1.30;;
37297;SDS011;30517;51.932;4.278;2023-01-01T08:23:47;3.80;;;1.63;;
37297;SDS011;30517;51.932;4.278;2023-01-01T08:26:31;4.57;;;1.58;;
37297;SDS011;30517;51.932;4.278;2023-01-01T08:29:13;5.97;;;1.35;;
37297;SDS011;30517;51.932;4.278;2023-01-01T08:31:54;5.45;;;1.55;;
37297;SDS011;30517;51.932;4.278;2023-01-01T08:34:35;4.90;;;1.60;;
37297;SDS011;30517;51.932;4.278;2023-01-01T08:37:15;4.60;;;1.42;;
37297;SDS011;30517;51.932;4.278;2023-01-01T08:40:00;5.75;;;1.65;;
37297;SDS011;30517;51.932;4.278;2023-01-01T08:42:40;3.13;;;1.38;;
37297;SDS011;30517;51.932;4.278;2023-01-01T08:45:21;3.08;;;1.10;;
37297;SDS011;30517;51.932;4.278;2023-01-01T08:48:02;4.95;;;1.20;;
37297;SDS011;30517;51.932;4.278;2023-01-01T08:50:43;3.42;;;1.00;;
37297;SDS011;30517;51.932;4.278;2023-01-01T08:53:24;3.50;;;1.20;;
37297;SDS011;30517;51.932;4.278;2023-01-01T08:56:09;6.70;;;1.38;;
37297;SDS011;30517;51.932;4.278;2023-01-01T08:58:51;5.30;;;1.33;;
37297;SDS011;30517;51.932;4.278;2023-01-01T09:01:32;5.25;;;1.50;;
37297;SDS011;30517;51.932;4.278;2023-01-01T09:04:13;6.85;;;1.80;;
37297;SDS011;30517;51.932;4.278;2023-01-01T09:06:54;5.07;;;1.55;;
37297;SDS011;30517;51.932;4.278;2023-01-01T09:09:34;4.75;;;1.25;;
37297;SDS011;30517;51.932;4.278;2023-01-01T09:12:15;4.30;;;1.50;;
37297;SDS011;30517;51.932;4.278;2023-01-01T09:14:56;4.53;;;1.23;;
37297;SDS011;30517;51.932;4.278;2023-01-01T09:17:37;5.03;;;1.23;;
37297;SDS011;30517;51.932;4.278;2023-01-01T09:20:18;4.75;;;1.20;;
37297;SDS011;30517;51.932;4.278;2023-01-01T09:22:58;3.97;;;1.20;;
37297;SDS011;30517;51.932;4.278;2023-01-01T09:25:39;6.55;;;1.63;;
37297;SDS011;30517;51.932;4.278;2023-01-01T09:28:20;5.13;;;1.30;;
37297;SDS011;30517;51.932;4.278;2023-01-01T09:31:01;7.20;;;1.38;;
37297;SDS011;30517;51.932;4.278;2023-01-01T09:36:29;7.25;;;1.20;;
37297;SDS011;30517;51.932;4.278;2023-01-01T09:39:12;3.70;;;1.23;;
37297;SDS011;30517;51.932;4.278;2023-01-01T09:42:06;4.73;;;1.27;;
37297;SDS011;30517;51.932;4.278;2023-01-01T09:45:02;4.72;;;1.30;;
37297;SDS011;30517;51.932;4.278;2023-01-01T09:47:55;5.03;;;1.20;;
37297;SDS011;30517;51.932;4.278;2023-01-01T09:50:40;4.35;;;1.60;;
37297;SDS011;30517;51.932;4.278;2023-01-01T09:53:30;6.10;;;1.10;;
37297;SDS011;30517;51.932;4.278;2023-01-01T09:56:24;6.57;;;1.33;;
37297;SDS011;30517;51.932;4.278;2023-01-01T09:59:07;5.32;;;1.50;;
37297;SDS011;30517;51.932;4.278;2023-01-01T10:01:53;3.90;;;1.00;;
37297;SDS011;30517;51.932;4.278;2023-01-01T10:04:49;4.20;;;0.95;;
37297;SDS011;30517;51.932;4.278;2023-01-01T10:07:45;4.82;;;1.25;;
37297;SDS011;30517;51.932;4.278;2023-01-01T10:17:31;5.38;;;1.30;;
37297;SDS011;30517;51.932;4.278;2023-01-01T10:20:19;4.88;;;1.23;;
37297;SDS011;30517;51.932;4.278;2023-01-01T10:23:25;2.08;;;0.90;;
37297;SDS011;30517;51.932;4.278;2023-01-01T10:26:12;7.78;;;1.90;;
37297;SDS011;30517;51.932;4.278;2023-01-01T10:31:55;8.45;;;1.40;;
37297;SDS011;30517;51.932;4.278;2023-01-01T10:34:37;6.10;;;1.52;;
37297;SDS011;30517;51.932;4.278;2023-01-01T10:37:18;5.10;;;1.35;;
37297;SDS011;30517;51.932;4.278;2023-01-01T10:40:01;5.65;;;1.20;;
37297;SDS011;30517;51.932;4.278;2023-01-01T10:42:47;5.82;;;1.63;;
37297;SDS011;30517;51.932;4.278;2023-01-01T10:48:13;5.03;;;0.90;;
37297;SDS011;30517;51.932;4.278;2023-01-01T10:53:53;3.45;;;0.90;;
37297;SDS011;30517;51.932;4.278;2023-01-01T10:56:38;3.92;;;1.08;;
37297;SDS011;30517;51.932;4.278;2023-01-01T10:59:39;6.07;;;1.15;;
37297;SDS011;30517;51.932;4.278;2023-01-01T11:02:24;3.60;;;1.30;;
37297;SDS011;30517;51.932;4.278;2023-01-01T11:05:20;3.50;;;1.10;;
37297;SDS011;30517;51.932;4.278;2023-01-01T11:10:41;5.72;;;1.95;;
37297;SDS011;30517;51.932;4.278;2023-01-01T11:13:30;8.25;;;2.53;;
37297;SDS011;30517;51.932;4.278;2023-01-01T11:16:12;9.82;;;5.35;;
37297;SDS011;30517;51.932;4.278;2023-01-01T11:18:59;14.63;;;7.68;;
37297;SDS011;30517;51.932;4.278;2023-01-01T11:21:45;14.88;;;8.55;;
37297;SDS011;30517;51.932;4.278;2023-01-01T11:24:27;28.88;;;20.83;;
37297;SDS011;30517;51.932;4.278;2023-01-01T11:27:23;23.20;;;15.23;;
37297;SDS011;30517;51.932;4.278;2023-01-01T11:33:01;21.35;;;12.55;;
37297;SDS011;30517;51.932;4.278;2023-01-01T11:35:47;19.17;;;13.47;;
37297;SDS011;30517;51.932;4.278;2023-01-01T11:38:32;17.67;;;12.35;;
37297;SDS011;30517;51.932;4.278;2023-01-01T11:41:13;16.17;;;12.63;;
37297;SDS011;30517;51.932;4.278;2023-01-01T11:43:54;16.83;;;12.18;;
37297;SDS011;30517;51.932;4.278;2023-01-01T11:46:36;19.63;;;13.60;;
37297;SDS011;30517;51.932;4.278;2023-01-01T11:49:22;16.65;;;12.00;;
37297;SDS011;30517;51.932;4.278;2023-01-01T11:55:23;18.98;;;12.73;;
37297;SDS011;30517;51.932;4.278;2023-01-01T12:10:21;15.18;;;11.25;;
37297;SDS011;30517;51.932;4.278;2023-01-01T12:13:05;19.35;;;11.68;;
37297;SDS011;30517;51.932;4.278;2023-01-01T12:16:01;17.13;;;12.30;;
37297;SDS011;30517;51.932;4.278;2023-01-01T12:18:55;17.02;;;11.25;;
37297;SDS011;30517;51.932;4.278;2023-01-01T12:21:41;15.30;;;10.05;;
37297;SDS011;30517;51.932;4.278;2023-01-01T12:24:29;16.23;;;10.90;;
37297;SDS011;30517;51.932;4.278;2023-01-01T12:27:18;19.58;;;11.85;;
37297;SDS011;30517;51.932;4.278;2023-01-01T12:31:11;20.35;;;11.90;;
37297;SDS011;30517;51.932;4.278;2023-01-01T12:33:34;16.75;;;9.27;;
37297;SDS011;30517;51.932;4.278;2023-01-01T12:36:24;15.48;;;11.30;;
37297;SDS011;30517;51.932;4.278;2023-01-01T12:51:46;16.10;;;11.60;;
37297;SDS011;30517;51.932;4.278;2023-01-01T12:54:35;16.42;;;10.68;;
37297;SDS011;30517;51.932;4.278;2023-01-01T12:57:39;16.42;;;10.82;;
37297;SDS011;30517;51.932;4.278;2023-01-01T13:00:28;17.50;;;11.45;;
37297;SDS011;30517;51.932;4.278;2023-01-01T13:03:17;13.10;;;9.50;;
37297;SDS011;30517;51.932;4.278;2023-01-01T13:06:00;14.35;;;9.80;;
37297;SDS011;30517;51.932;4.278;2023-01-01T13:08:46;15.25;;;9.38;;
37297;SDS011;30517;51.932;4.278;2023-01-01T13:11:31;14.60;;;10.30;;
37297;SDS011;30517;51.932;4.278;2023-01-01T13:14:13;16.05;;;9.70;;
37297;SDS011;30517;51.932;4.278;2023-01-01T13:16:55;13.63;;;9.57;;
37297;SDS011;30517;51.932;4.278;2023-01-01T13:19:37;12.68;;;9.25;;
37297;SDS011;30517;51.932;4.278;2023-01-01T13:33:24;12.48;;;8.52;;
37297;SDS011;30517;51.932;4.278;2023-01-01T13:38:55;12.90;;;8.68;;
37297;SDS011;30517;51.932;4.278;2023-01-01T13:44:23;14.00;;;8.77;;
37297;SDS011;30517;51.932;4.278;2023-01-01T13:47:24;11.80;;;6.90;;
37297;SDS011;30517;51.932;4.278;2023-01-01T13:50:20;11.82;;;8.07;;
37297;SDS011;30517;51.932;4.278;2023-01-01T14:01:47;11.45;;;6.63;;
37297;SDS011;30517;51.932;4.278;2023-01-01T14:04:37;11.82;;;7.20;;
37297;SDS011;30517;51.932;4.278;2023-01-01T14:13:15;9.85;;;6.63;;
37297;SDS011;30517;51.932;4.278;2023-01-01T14:16:03;12.25;;;6.97;;
37297;SDS011;30517;51.932;4.278;2023-01-01T14:18:48;11.35;;;6.63;;
37297;SDS011;30517;51.932;4.278;2023-01-01T14:21:32;12.00;;;6.13;;
37297;SDS011;30517;51.932;4.278;2023-01-01T14:24:14;12.60;;;6.70;;
37297;SDS011;30517;51.932;4.278;2023-01-01T14:29:38;14.93;;;5.75;;
37297;SDS011;30517;51.932;4.278;2023-01-01T14:32:21;10.38;;;5.13;;
37297;SDS011;30517;51.932;4.278;2023-01-01T14:35:10;12.07;;;5.93;;
37297;SDS011;30517;51.932;4.278;2023-01-01T14:37:55;9.20;;;5.38;;
37297;SDS011;30517;51.932;4.278;2023-01-01T14:40:36;9.95;;;4.75;;
37297;SDS011;30517;51.932;4.278;2023-01-01T14:43:17;9.40;;;5.68;;
37297;SDS011;30517;51.932;4.278;2023-01-01T14:45:58;9.65;;;5.55;;
37297;SDS011;30517;51.932;4.278;2023-01-01T14:48:46;14.80;;;5.35;;
37297;SDS011;30517;51.932;4.278;2023-01-01T14:51:29;11.35;;;4.78;;
37297;SDS011;30517;51.932;4.278;2023-01-01T14:54:15;12.50;;;4.82;;
37297;SDS011;30517;51.932;4.278;2023-01-01T14:56:59;8.35;;;4.53;;
37297;SDS011;30517;51.932;4.278;2023-01-01T14:59:48;9.43;;;4.15;;
37297;SDS011;30517;51.932;4.278;2023-01-01T15:02:36;9.15;;;4.38;;
37297;SDS011;30517;51.932;4.278;2023-01-01T15:08:22;14.60;;;5.10;;
37297;SDS011;30517;51.932;4.278;2023-01-01T15:11:05;8.50;;;4.17;;
37297;SDS011;30517;51.932;4.278;2023-01-01T15:13:53;10.32;;;4.40;;
37297;SDS011;30517;51.932;4.278;2023-01-01T15:16:36;8.98;;;4.03;;
37297;SDS011;30517;51.932;4.278;2023-01-01T15:19:17;9.77;;;3.70;;
37297;SDS011;30517;51.932;4.278;2023-01-01T15:21:58;8.60;;;3.85;;
37297;SDS011;30517;51.932;4.278;2023-01-01T15:24:39;11.02;;;4.00;;
37297;SDS011;30517;51.932;4.278;2023-01-01T15:39:13;8.43;;;4.00;;
37297;SDS011;30517;51.932;4.278;2023-01-01T16:16:03;8.55;;;3.47;;
37297;SDS011;30517;51.932;4.278;2023-01-01T16:19:03;7.32;;;3.80;;
37297;SDS011;30517;51.932;4.278;2023-01-01T16:21:44;7.32;;;3.67;;
37297;SDS011;30517;51.932;4.278;2023-01-01T16:24:34;9.15;;;4.22;;
37297;SDS011;30517;51.932;4.278;2023-01-01T16:27:15;8.73;;;4.30;;
37297;SDS011;30517;51.932;4.278;2023-01-01T16:29:56;9.85;;;4.70;;
37297;SDS011;30517;51.932;4.278;2023-01-01T16:32:37;9.93;;;4.53;;
37297;SDS011;30517;51.932;4.278;2023-01-01T16:35:18;9.20;;;4.60;;
37297;SDS011;30517;51.932;4.278;2023-01-01T16:38:00;8.68;;;4.50;;
37297;SDS011;30517;51.932;4.278;2023-01-01T16:40:40;6.95;;;4.30;;
37297;SDS011;30517;51.932;4.278;2023-01-01T16:43:21;10.52;;;5.05;;
37297;SDS011;30517;51.932;4.278;2023-01-01T16:46:02;8.38;;;4.25;;
37297;SDS011;30517;51.932;4.278;2023-01-01T16:48:43;7.88;;;4.45;;
37297;SDS011;30517;51.932;4.278;2023-01-01T16:51:25;8.50;;;4.70;;
37297;SDS011;30517;51.932;4.278;2023-01-01T16:54:08;10.18;;;4.40;;
37297;SDS011;30517;51.932;4.278;2023-01-01T16:56:49;6.97;;;4.50;;
37297;SDS011;30517;51.932;4.278;2023-01-01T16:59:30;7.40;;;4.50;;
37297;SDS011;30517;51.932;4.278;2023-01-01T17:02:11;6.72;;;4.10;;
37297;SDS011;30517;51.932;4.278;2023-01-01T17:04:51;11.20;;;4.20;;
37297;SDS011;30517;51.932;4.278;2023-01-01T17:07:32;8.90;;;4.25;;
37297;SDS011;30517;51.932;4.278;2023-01-01T17:10:13;9.68;;;4.82;;
37297;SDS011;30517;51.932;4.278;2023-01-01T17:12:54;9.13;;;4.18;;
37297;SDS011;30517;51.932;4.278;2023-01-01T17:15:40;9.90;;;3.95;;
37297;SDS011;30517;51.932;4.278;2023-01-01T17:18:21;8.07;;;4.20;;
37297;SDS011;30517;51.932;4.278;2023-01-01T17:21:03;7.78;;;4.03;;
37297;SDS011;30517;51.932;4.278;2023-01-01T17:23:44;7.18;;;3.78;;
37297;SDS011;30517;51.932;4.278;2023-01-01T17:26:25;8.32;;;4.00;;
37297;SDS011;30517;51.932;4.278;2023-01-01T17:29:06;10.77;;;3.95;;
37297;SDS011;30517;51.932;4.278;2023-01-01T17:33:23;6.68;;;3.78;;
37297;SDS011;30517;51.932;4.278;2023-01-01T17:36:04;7.72;;;3.92;;
37297;SDS011;30517;51.932;4.278;2023-01-01T17:38:45;9.35;;;4.35;;
37297;SDS011;30517;51.932;4.278;2023-01-01T17:41:26;7.53;;;3.90;;
37297;SDS011;30517;51.932;4.278;2023-01-01T17:44:07;8.18;;;3.88;;
37297;SDS011;30517;51.932;4.278;2023-01-01T17:46:49;7.88;;;3.78;;
37297;SDS011;30517;51.932;4.278;2023-01-01T17:49:30;8.75;;;3.90;;
37297;SDS011;30517;51.932;4.278;2023-01-01T17:52:10;6.07;;;3.20;;
37297;SDS011;30517;51.932;4.278;2023-01-01T17:54:51;8.02;;;3.53;;
37297;SDS011;30517;51.932;4.278;2023-01-01T17:57:32;8.25;;;3.75;;
37297;SDS011;30517;51.932;4.278;2023-01-01T18:00:13;8.75;;;3.97;;
37297;SDS011;30517;51.932;4.278;2023-01-01T18:02:54;8.80;;;3.88;;
37297;SDS011;30517;51.932;4.278;2023-01-01T18:05:35;7.65;;;3.08;;
37297;SDS011;30517;51.932;4.278;2023-01-01T18:08:16;7.72;;;3.60;;
37297;SDS011;30517;51.932;4.278;2023-01-01T18:10:56;7.28;;;3.35;;
37297;SDS011;30517;51.932;4.278;2023-01-01T18:13:37;8.50;;;3.30;;
37297;SDS011;30517;51.932;4.278;2023-01-01T18:16:18;6.95;;;3.53;;
37297;SDS011;30517;51.932;4.278;2023-01-01T18:18:59;7.07;;;3.47;;
37297;SDS011;30517;51.932;4.278;2023-01-01T18:21:42;7.22;;;3.13;;
37297;SDS011;30517;51.932;4.278;2023-01-01T18:24:23;9.43;;;3.20;;
37297;SDS011;30517;51.932;4.278;2023-01-01T18:27:04;8.40;;;3.38;;
37297;SDS011;30517;51.932;4.278;2023-01-01T18:29:47;6.05;;;3.25;;
37297;SDS011;30517;51.932;4.278;2023-01-01T18:32:28;8.27;;;3.38;;
37297;SDS011;30517;51.932;4.278;2023-01-01T18:35:09;8.00;;;3.10;;
37297;SDS011;30517;51.932;4.278;2023-01-01T18:37:50;7.90;;;3.25;;
37297;SDS011;30517;51.932;4.278;2023-01-01T18:40:30;7.47;;;2.92;;
37297;SDS011;30517;51.932;4.278;2023-01-01T18:43:18;5.60;;;3.00;;
37297;SDS011;30517;51.932;4.278;2023-01-01T18:46:07;5.85;;;3.05;;
37297;SDS011;30517;51.932;4.278;2023-01-01T18:48:48;6.65;;;3.10;;
37297;SDS011;30517;51.932;4.278;2023-01-01T18:51:29;6.20;;;3.22;;
37297;SDS011;30517;51.932;4.278;2023-01-01T18:54:11;5.85;;;2.80;;
37297;SDS011;30517;51.932;4.278;2023-01-01T18:56:58;6.25;;;2.65;;
37297;SDS011;30517;51.932;4.278;2023-01-01T19:00:14;5.03;;;2.33;;
37297;SDS011;30517;51.932;4.278;2023-01-01T19:02:57;6.65;;;3.13;;
37297;SDS011;30517;51.932;4.278;2023-01-01T19:08:21;8.05;;;3.17;;
37297;SDS011;30517;51.932;4.278;2023-01-01T19:11:04;7.65;;;3.00;;
37297;SDS011;30517;51.932;4.278;2023-01-01T19:16:28;8.00;;;3.17;;